sensor_id;sensor_type;location;lat;lon;timestamp;P1;durP1;ratioP1;P2;durP2;ratioP2
43996;SDS011;34318;45.818;15.964;2022-10-31T00:00:47;17.02;;;15.25;;
43996;SDS011;34318;45.818;15.964;2022-10-31T00:03:15;17.70;;;15.95;;
43996;SDS011;34318;45.818;15.964;2022-10-31T00:05:46;16.75;;;15.00;;
43996;SDS011;34318;45.818;15.964;2022-10-31T00:08:14;19.17;;;16.05;;
43996;SDS011;34318;45.818;15.964;2022-10-31T00:10:41;17.50;;;15.02;;
43996;SDS011;34318;45.818;15.964;2022-10-31T00:13:09;20.83;;;15.90;;
43996;SDS011;34318;45.818;15.964;2022-10-31T00:15:37;17.00;;;15.15;;
43996;SDS011;34318;45.818;15.964;2022-10-31T00:18:05;17.27;;;15.45;;
43996;SDS011;34318;45.818;15.964;2022-10-31T00:20:33;18.23;;;15.18;;
43996;SDS011;34318;45.818;15.964;2022-10-31T00:23:01;16.23;;;14.20;;
43996;SDS011;34318;45.818;15.964;2022-10-31T00:25:32;16.60;;;14.88;;
43996;SDS011;34318;45.818;15.964;2022-10-31T00:27:59;16.95;;;14.27;;
43996;SDS011;34318;45.818;15.964;2022-10-31T00:30:27;20.05;;;14.88;;
43996;SDS011;34318;45.818;15.964;2022-10-31T00:32:54;18.58;;;14.90;;
43996;SDS011;34318;45.818;15.964;2022-10-31T00:35:22;16.45;;;13.85;;
43996;SDS011;34318;45.818;15.964;2022-10-31T00:37:49;17.90;;;14.65;;
43996;SDS011;34318;45.818;15.964;2022-10-31T00:40:16;15.27;;;13.35;;
43996;SDS011;34318;45.818;15.964;2022-10-31T00:42:44;16.45;;;13.32;;
43996;SDS011;34318;45.818;15.964;2022-10-31T00:45:11;19.50;;;15.82;;
43996;SDS011;34318;45.818;15.964;2022-10-31T00:47:38;17.23;;;13.40;;
43996;SDS011;34318;45.818;15.964;2022-10-31T00:50:06;16.25;;;13.20;;
43996;SDS011;34318;45.818;15.964;2022-10-31T00:52:34;14.75;;;13.18;;
43996;SDS011;34318;45.818;15.964;2022-10-31T00:55:01;17.15;;;13.68;;
43996;SDS011;34318;45.818;15.964;2022-10-31T00:57:28;16.60;;;13.95;;
43996;SDS011;34318;45.818;15.964;2022-10-31T00:59:56;14.18;;;12.75;;
43996;SDS011;34318;45.818;15.964;2022-10-31T01:02:23;15.57;;;13.65;;
43996;SDS011;34318;45.818;15.964;2022-10-31T01:04:50;15.18;;;13.60;;
43996;SDS011;34318;45.818;15.964;2022-10-31T01:07:17;14.60;;;12.75;;
43996;SDS011;34318;45.818;15.964;2022-10-31T01:09:44;16.17;;;13.18;;
43996;SDS011;34318;45.818;15.964;2022-10-31T01:12:12;16.00;;;12.70;;
43996;SDS011;34318;45.818;15.964;2022-10-31T01:14:42;14.63;;;13.13;;
43996;SDS011;34318;45.818;15.964;2022-10-31T01:17:10;13.95;;;12.60;;
43996;SDS011;34318;45.818;15.964;2022-10-31T01:19:37;14.13;;;12.45;;
43996;SDS011;34318;45.818;15.964;2022-10-31T01:22:05;15.07;;;13.68;;
43996;SDS011;34318;45.818;15.964;2022-10-31T01:24:32;15.30;;;13.57;;
43996;SDS011;34318;45.818;15.964;2022-10-31T01:26:59;14.40;;;12.15;;
43996;SDS011;34318;45.818;15.964;2022-10-31T01:29:26;13.73;;;12.40;;
43996;SDS011;34318;45.818;15.964;2022-10-31T01:31:53;14.80;;;12.30;;
43996;SDS011;34318;45.818;15.964;2022-10-31T01:34:21;15.60;;;12.40;;
43996;SDS011;34318;45.818;15.964;2022-10-31T01:36:49;13.75;;;12.32;;
43996;SDS011;34318;45.818;15.964;2022-10-31T01:39:18;13.77;;;11.82;;
43996;SDS011;34318;45.818;15.964;2022-10-31T01:41:49;13.73;;;12.43;;
43996;SDS011;34318;45.818;15.964;2022-10-31T01:46:48;13.57;;;11.63;;
43996;SDS011;34318;45.818;15.964;2022-10-31T01:49:18;13.88;;;11.75;;
43996;SDS011;34318;45.818;15.964;2022-10-31T01:51:48;13.30;;;12.02;;
43996;SDS011;34318;45.818;15.964;2022-10-31T01:54:17;12.95;;;11.73;;
43996;SDS011;34318;45.818;15.964;2022-10-31T01:56:47;14.30;;;12.60;;
43996;SDS011;34318;45.818;15.964;2022-10-31T01:59:15;12.63;;;11.43;;
43996;SDS011;34318;45.818;15.964;2022-10-31T02:01:44;13.35;;;11.90;;
43996;SDS011;34318;45.818;15.964;2022-10-31T02:04:12;12.95;;;11.57;;
43996;SDS011;34318;45.818;15.964;2022-10-31T02:09:36;12.77;;;11.52;;
43996;SDS011;34318;45.818;15.964;2022-10-31T02:12:04;13.75;;;12.05;;
43996;SDS011;34318;45.818;15.964;2022-10-31T02:14:32;12.48;;;11.27;;
43996;SDS011;34318;45.818;15.964;2022-10-31T02:17:00;12.93;;;11.63;;
43996;SDS011;34318;45.818;15.964;2022-10-31T02:19:30;12.55;;;11.25;;
43996;SDS011;34318;45.818;15.964;2022-10-31T02:22:19;11.82;;;10.73;;
43996;SDS011;34318;45.818;15.964;2022-10-31T02:29:58;12.60;;;10.60;;
43996;SDS011;34318;45.818;15.964;2022-10-31T02:32:46;15.52;;;10.90;;
43996;SDS011;34318;45.818;15.964;2022-10-31T02:40:23;12.50;;;11.20;;
43996;SDS011;34318;45.818;15.964;2022-10-31T02:42:59;13.02;;;10.48;;
43996;SDS011;34318;45.818;15.964;2022-10-31T02:45:42;11.77;;;10.57;;
43996;SDS011;34318;45.818;15.964;2022-10-31T02:48:12;13.73;;;11.77;;
43996;SDS011;34318;45.818;15.964;2022-10-31T02:50:42;11.88;;;10.68;;
43996;SDS011;34318;45.818;15.964;2022-10-31T02:53:10;13.48;;;11.43;;
43996;SDS011;34318;45.818;15.964;2022-10-31T02:58:19;11.27;;;10.10;;
43996;SDS011;34318;45.818;15.964;2022-10-31T03:01:01;11.82;;;10.70;;
43996;SDS011;34318;45.818;15.964;2022-10-31T03:06:14;13.85;;;10.90;;
43996;SDS011;34318;45.818;15.964;2022-10-31T03:08:50;15.00;;;10.77;;
43996;SDS011;34318;45.818;15.964;2022-10-31T03:11:21;12.13;;;10.93;;
43996;SDS011;34318;45.818;15.964;2022-10-31T03:14:00;11.23;;;10.20;;
43996;SDS011;34318;45.818;15.964;2022-10-31T03:22:00;10.70;;;9.65;;
43996;SDS011;34318;45.818;15.964;2022-10-31T03:24:30;10.98;;;9.88;;
43996;SDS011;34318;45.818;15.964;2022-10-31T03:26:59;10.60;;;9.52;;
43996;SDS011;34318;45.818;15.964;2022-10-31T03:29:28;11.00;;;10.00;;
43996;SDS011;34318;45.818;15.964;2022-10-31T03:31:57;13.20;;;10.20;;
43996;SDS011;34318;45.818;15.964;2022-10-31T03:34:26;11.23;;;10.10;;
43996;SDS011;34318;45.818;15.964;2022-10-31T03:36:54;10.63;;;9.63;;
43996;SDS011;34318;45.818;15.964;2022-10-31T03:39:22;11.13;;;9.00;;
43996;SDS011;34318;45.818;15.964;2022-10-31T03:41:54;11.40;;;10.30;;
43996;SDS011;34318;45.818;15.964;2022-10-31T03:44:23;11.18;;;9.98;;
43996;SDS011;34318;45.818;15.964;2022-10-31T03:46:50;10.75;;;9.75;;
43996;SDS011;34318;45.818;15.964;2022-10-31T03:49:17;11.00;;;9.80;;
43996;SDS011;34318;45.818;15.964;2022-10-31T03:51:54;11.45;;;10.25;;
43996;SDS011;34318;45.818;15.964;2022-10-31T03:54:25;10.07;;;9.02;;
43996;SDS011;34318;45.818;15.964;2022-10-31T03:56:59;11.00;;;9.55;;
43996;SDS011;34318;45.818;15.964;2022-10-31T03:59:29;11.80;;;9.32;;
43996;SDS011;34318;45.818;15.964;2022-10-31T04:02:00;10.50;;;9.50;;
43996;SDS011;34318;45.818;15.964;2022-10-31T04:04:29;10.20;;;9.20;;
43996;SDS011;34318;45.818;15.964;2022-10-31T04:06:56;9.45;;;8.52;;
43996;SDS011;34318;45.818;15.964;2022-10-31T04:09:25;9.88;;;8.88;;
43996;SDS011;34318;45.818;15.964;2022-10-31T04:11:53;9.82;;;8.90;;
43996;SDS011;34318;45.818;15.964;2022-10-31T04:14:22;10.75;;;9.13;;
43996;SDS011;34318;45.818;15.964;2022-10-31T04:16:50;9.73;;;8.75;;
43996;SDS011;34318;45.818;15.964;2022-10-31T04:19:19;9.07;;;8.18;;
43996;SDS011;34318;45.818;15.964;2022-10-31T04:21:46;9.88;;;8.98;;
43996;SDS011;34318;45.818;15.964;2022-10-31T04:24:13;10.50;;;9.43;;
43996;SDS011;34318;45.818;15.964;2022-10-31T04:26:40;12.57;;;9.52;;
43996;SDS011;34318;45.818;15.964;2022-10-31T04:29:07;9.90;;;8.90;;
43996;SDS011;34318;45.818;15.964;2022-10-31T04:31:34;9.43;;;8.48;;
43996;SDS011;34318;45.818;15.964;2022-10-31T04:34:01;9.10;;;8.20;;
43996;SDS011;34318;45.818;15.964;2022-10-31T04:36:29;10.85;;;8.70;;
43996;SDS011;34318;45.818;15.964;2022-10-31T04:38:56;9.27;;;8.38;;
43996;SDS011;34318;45.818;15.964;2022-10-31T04:41:23;11.40;;;8.43;;
43996;SDS011;34318;45.818;15.964;2022-10-31T04:43:50;9.05;;;8.18;;
43996;SDS011;34318;45.818;15.964;2022-10-31T04:46:17;9.88;;;8.90;;
43996;SDS011;34318;45.818;15.964;2022-10-31T04:48:44;9.45;;;8.50;;
43996;SDS011;34318;45.818;15.964;2022-10-31T04:51:12;9.40;;;8.55;;
43996;SDS011;34318;45.818;15.964;2022-10-31T04:53:39;9.63;;;8.73;;
43996;SDS011;34318;45.818;15.964;2022-10-31T04:56:06;9.38;;;8.55;;
43996;SDS011;34318;45.818;15.964;2022-10-31T04:58:33;9.18;;;8.27;;
43996;SDS011;34318;45.818;15.964;2022-10-31T05:01:00;9.27;;;8.35;;
43996;SDS011;34318;45.818;15.964;2022-10-31T05:03:28;9.10;;;8.30;;
43996;SDS011;34318;45.818;15.964;2022-10-31T05:05:55;8.90;;;7.82;;
43996;SDS011;34318;45.818;15.964;2022-10-31T05:08:22;15.82;;;8.05;;
43996;SDS011;34318;45.818;15.964;2022-10-31T05:10:49;10.10;;;9.10;;
43996;SDS011;34318;45.818;15.964;2022-10-31T05:13:16;9.70;;;8.02;;
43996;SDS011;34318;45.818;15.964;2022-10-31T05:15:44;9.13;;;7.72;;
43996;SDS011;34318;45.818;15.964;2022-10-31T05:18:11;9.38;;;7.90;;
43996;SDS011;34318;45.818;15.964;2022-10-31T05:20:38;8.48;;;7.68;;
43996;SDS011;34318;45.818;15.964;2022-10-31T05:23:06;9.98;;;8.98;;
43996;SDS011;34318;45.818;15.964;2022-10-31T05:25:33;9.20;;;8.30;;
43996;SDS011;34318;45.818;15.964;2022-10-31T05:28:00;9.95;;;8.02;;
43996;SDS011;34318;45.818;15.964;2022-10-31T05:30:29;8.90;;;8.02;;
43996;SDS011;34318;45.818;15.964;2022-10-31T05:32:56;8.68;;;7.78;;
43996;SDS011;34318;45.818;15.964;2022-10-31T05:35:28;10.23;;;8.23;;
43996;SDS011;34318;45.818;15.964;2022-10-31T05:37:55;10.43;;;7.30;;
43996;SDS011;34318;45.818;15.964;2022-10-31T05:40:24;8.32;;;7.25;;
43996;SDS011;34318;45.818;15.964;2022-10-31T05:42:52;8.98;;;8.05;;
43996;SDS011;34318;45.818;15.964;2022-10-31T05:45:20;9.55;;;7.82;;
43996;SDS011;34318;45.818;15.964;2022-10-31T05:47:54;8.30;;;7.50;;
43996;SDS011;34318;45.818;15.964;2022-10-31T05:50:23;9.60;;;7.30;;
43996;SDS011;34318;45.818;15.964;2022-10-31T05:52:54;8.43;;;7.47;;
43996;SDS011;34318;45.818;15.964;2022-10-31T05:55:21;8.73;;;7.82;;
43996;SDS011;34318;45.818;15.964;2022-10-31T05:57:49;8.00;;;7.20;;
43996;SDS011;34318;45.818;15.964;2022-10-31T06:00:17;8.20;;;7.40;;
43996;SDS011;34318;45.818;15.964;2022-10-31T06:02:44;10.43;;;7.43;;
43996;SDS011;34318;45.818;15.964;2022-10-31T06:05:11;8.65;;;7.40;;
43996;SDS011;34318;45.818;15.964;2022-10-31T06:07:39;14.73;;;8.18;;
43996;SDS011;34318;45.818;15.964;2022-10-31T06:10:07;8.00;;;7.25;;
43996;SDS011;34318;45.818;15.964;2022-10-31T06:12:35;8.35;;;7.47;;
43996;SDS011;34318;45.818;15.964;2022-10-31T06:15:05;8.13;;;7.32;;
43996;SDS011;34318;45.818;15.964;2022-10-31T06:17:33;8.18;;;7.38;;
43996;SDS011;34318;45.818;15.964;2022-10-31T06:20:02;8.63;;;7.82;;
43996;SDS011;34318;45.818;15.964;2022-10-31T06:22:30;8.25;;;7.45;;
43996;SDS011;34318;45.818;15.964;2022-10-31T06:25:00;8.93;;;7.55;;
43996;SDS011;34318;45.818;15.964;2022-10-31T06:27:28;7.82;;;7.05;;
43996;SDS011;34318;45.818;15.964;2022-10-31T06:29:56;9.75;;;8.15;;
43996;SDS011;34318;45.818;15.964;2022-10-31T06:32:27;8.57;;;7.68;;
43996;SDS011;34318;45.818;15.964;2022-10-31T06:34:55;12.88;;;8.10;;
43996;SDS011;34318;45.818;15.964;2022-10-31T06:37:27;8.30;;;7.50;;
43996;SDS011;34318;45.818;15.964;2022-10-31T06:39:55;9.50;;;7.15;;
43996;SDS011;34318;45.818;15.964;2022-10-31T06:42:23;10.23;;;7.70;;
43996;SDS011;34318;45.818;15.964;2022-10-31T06:44:51;8.38;;;7.68;;
43996;SDS011;34318;45.818;15.964;2022-10-31T06:47:19;8.25;;;7.40;;
43996;SDS011;34318;45.818;15.964;2022-10-31T06:49:47;8.43;;;7.28;;
43996;SDS011;34318;45.818;15.964;2022-10-31T06:52:17;10.07;;;7.70;;
43996;SDS011;34318;45.818;15.964;2022-10-31T06:54:44;9.85;;;7.85;;
43996;SDS011;34318;45.818;15.964;2022-10-31T06:57:12;7.63;;;7.00;;
43996;SDS011;34318;45.818;15.964;2022-10-31T06:59:40;9.05;;;7.72;;
43996;SDS011;34318;45.818;15.964;2022-10-31T07:02:09;7.68;;;6.97;;
43996;SDS011;34318;45.818;15.964;2022-10-31T07:04:37;9.30;;;7.57;;
43996;SDS011;34318;45.818;15.964;2022-10-31T07:07:12;9.35;;;7.18;;
43996;SDS011;34318;45.818;15.964;2022-10-31T07:09:39;8.45;;;7.72;;
43996;SDS011;34318;45.818;15.964;2022-10-31T07:12:07;7.28;;;6.53;;
43996;SDS011;34318;45.818;15.964;2022-10-31T07:14:34;9.18;;;8.27;;
43996;SDS011;34318;45.818;15.964;2022-10-31T07:17:01;9.02;;;7.45;;
43996;SDS011;34318;45.818;15.964;2022-10-31T07:19:28;7.80;;;6.35;;
43996;SDS011;34318;45.818;15.964;2022-10-31T07:21:56;11.07;;;7.32;;
43996;SDS011;34318;45.818;15.964;2022-10-31T07:24:23;9.82;;;7.78;;
43996;SDS011;34318;45.818;15.964;2022-10-31T07:26:50;8.57;;;7.45;;
43996;SDS011;34318;45.818;15.964;2022-10-31T07:29:18;10.02;;;8.90;;
43996;SDS011;34318;45.818;15.964;2022-10-31T07:31:46;10.23;;;9.23;;
43996;SDS011;34318;45.818;15.964;2022-10-31T07:34:13;11.18;;;9.23;;
43996;SDS011;34318;45.818;15.964;2022-10-31T07:36:40;11.25;;;10.15;;
43996;SDS011;34318;45.818;15.964;2022-10-31T07:39:07;10.77;;;9.68;;
43996;SDS011;34318;45.818;15.964;2022-10-31T07:41:34;11.10;;;10.00;;
43996;SDS011;34318;45.818;15.964;2022-10-31T07:44:02;10.93;;;9.93;;
43996;SDS011;34318;45.818;15.964;2022-10-31T07:46:30;11.82;;;10.48;;
43996;SDS011;34318;45.818;15.964;2022-10-31T07:48:57;11.70;;;10.18;;
43996;SDS011;34318;45.818;15.964;2022-10-31T07:51:24;10.45;;;9.27;;
43996;SDS011;34318;45.818;15.964;2022-10-31T07:53:52;11.68;;;9.63;;
43996;SDS011;34318;45.818;15.964;2022-10-31T07:56:20;11.20;;;10.10;;
43996;SDS011;34318;45.818;15.964;2022-10-31T07:58:47;10.52;;;9.52;;
43996;SDS011;34318;45.818;15.964;2022-10-31T08:01:14;11.23;;;9.70;;
43996;SDS011;34318;45.818;15.964;2022-10-31T08:03:41;12.50;;;11.18;;
43996;SDS011;34318;45.818;15.964;2022-10-31T08:06:08;10.65;;;9.57;;
43996;SDS011;34318;45.818;15.964;2022-10-31T08:08:35;10.60;;;9.10;;
43996;SDS011;34318;45.818;15.964;2022-10-31T08:11:03;11.70;;;9.50;;
43996;SDS011;34318;45.818;15.964;2022-10-31T08:13:31;16.17;;;9.45;;
43996;SDS011;34318;45.818;15.964;2022-10-31T08:15:58;20.13;;;11.20;;
43996;SDS011;34318;45.818;15.964;2022-10-31T08:18:29;20.40;;;11.90;;
43996;SDS011;34318;45.818;15.964;2022-10-31T08:20:57;16.42;;;11.32;;
43996;SDS011;34318;45.818;15.964;2022-10-31T08:23:24;15.70;;;11.52;;
43996;SDS011;34318;45.818;15.964;2022-10-31T08:25:51;16.70;;;10.80;;
43996;SDS011;34318;45.818;15.964;2022-10-31T08:28:18;12.43;;;10.52;;
43996;SDS011;34318;45.818;15.964;2022-10-31T08:30:46;14.75;;;11.18;;
43996;SDS011;34318;45.818;15.964;2022-10-31T08:33:14;15.57;;;10.93;;
43996;SDS011;34318;45.818;15.964;2022-10-31T08:35:42;13.98;;;10.70;;
43996;SDS011;34318;45.818;15.964;2022-10-31T08:38:10;14.80;;;10.20;;
43996;SDS011;34318;45.818;15.964;2022-10-31T08:40:38;12.88;;;10.52;;
43996;SDS011;34318;45.818;15.964;2022-10-31T08:43:08;18.08;;;10.57;;
43996;SDS011;34318;45.818;15.964;2022-10-31T08:45:37;20.58;;;11.23;;
43996;SDS011;34318;45.818;15.964;2022-10-31T08:48:05;18.02;;;11.02;;
43996;SDS011;34318;45.818;15.964;2022-10-31T08:50:34;14.45;;;9.98;;
43996;SDS011;34318;45.818;15.964;2022-10-31T08:53:02;15.10;;;10.30;;
43996;SDS011;34318;45.818;15.964;2022-10-31T08:55:32;17.00;;;10.25;;
43996;SDS011;34318;45.818;15.964;2022-10-31T08:57:59;16.85;;;11.27;;
43996;SDS011;34318;45.818;15.964;2022-10-31T09:00:27;12.60;;;10.48;;
43996;SDS011;34318;45.818;15.964;2022-10-31T09:02:55;15.00;;;10.93;;
43996;SDS011;34318;45.818;15.964;2022-10-31T09:05:22;13.95;;;10.40;;
43996;SDS011;34318;45.818;15.964;2022-10-31T09:07:50;15.90;;;10.85;;
43996;SDS011;34318;45.818;15.964;2022-10-31T09:10:17;10.73;;;9.55;;
43996;SDS011;34318;45.818;15.964;2022-10-31T09:12:44;15.02;;;10.68;;
43996;SDS011;34318;45.818;15.964;2022-10-31T09:15:11;13.48;;;10.27;;
43996;SDS011;34318;45.818;15.964;2022-10-31T09:17:39;15.15;;;10.75;;
43996;SDS011;34318;45.818;15.964;2022-10-31T09:20:06;13.13;;;10.07;;
43996;SDS011;34318;45.818;15.964;2022-10-31T09:22:33;14.05;;;10.18;;
43996;SDS011;34318;45.818;15.964;2022-10-31T09:25:00;12.65;;;10.18;;
43996;SDS011;34318;45.818;15.964;2022-10-31T09:27:27;11.60;;;9.73;;
43996;SDS011;34318;45.818;15.964;2022-10-31T09:29:54;14.52;;;10.73;;
43996;SDS011;34318;45.818;15.964;2022-10-31T09:32:22;14.05;;;10.18;;
43996;SDS011;34318;45.818;15.964;2022-10-31T09:34:49;11.95;;;9.93;;
43996;SDS011;34318;45.818;15.964;2022-10-31T09:37:16;16.30;;;10.80;;
43996;SDS011;34318;45.818;15.964;2022-10-31T09:39:43;14.38;;;9.77;;
43996;SDS011;34318;45.818;15.964;2022-10-31T09:42:17;22.77;;;11.90;;
43996;SDS011;34318;45.818;15.964;2022-10-31T09:47:22;13.52;;;9.27;;
43996;SDS011;34318;45.818;15.964;2022-10-31T09:54:51;16.30;;;9.75;;
43996;SDS011;34318;45.818;15.964;2022-10-31T09:57:27;11.50;;;9.05;;
43996;SDS011;34318;45.818;15.964;2022-10-31T09:59:55;13.38;;;9.93;;
43996;SDS011;34318;45.818;15.964;2022-10-31T10:02:24;17.67;;;9.85;;
43996;SDS011;34318;45.818;15.964;2022-10-31T10:05:00;13.95;;;8.90;;
43996;SDS011;34318;45.818;15.964;2022-10-31T10:10:28;18.48;;;11.63;;
43996;SDS011;34318;45.818;15.964;2022-10-31T10:13:11;21.25;;;10.50;;
43996;SDS011;34318;45.818;15.964;2022-10-31T10:25:39;20.92;;;11.82;;
43996;SDS011;34318;45.818;15.964;2022-10-31T10:28:26;19.92;;;11.60;;
43996;SDS011;34318;45.818;15.964;2022-10-31T10:31:03;22.40;;;11.77;;
43996;SDS011;34318;45.818;15.964;2022-10-31T10:33:35;20.15;;;12.18;;
43996;SDS011;34318;45.818;15.964;2022-10-31T10:36:04;24.10;;;12.50;;
43996;SDS011;34318;45.818;15.964;2022-10-31T10:41:23;25.13;;;13.43;;
43996;SDS011;34318;45.818;15.964;2022-10-31T10:43:57;18.55;;;12.65;;
43996;SDS011;34318;45.818;15.964;2022-10-31T10:46:40;20.60;;;13.05;;
43996;SDS011;34318;45.818;15.964;2022-10-31T10:50:00;19.05;;;15.27;;
43996;SDS011;34318;45.818;15.964;2022-10-31T10:55:26;21.38;;;15.77;;
43996;SDS011;34318;45.818;15.964;2022-10-31T10:57:58;20.33;;;14.30;;
43996;SDS011;34318;45.818;15.964;2022-10-31T11:00:31;17.58;;;12.43;;
43996;SDS011;34318;45.818;15.964;2022-10-31T11:02:59;20.23;;;13.65;;
43996;SDS011;34318;45.818;15.964;2022-10-31T11:07:57;19.15;;;13.32;;
43996;SDS011;34318;45.818;15.964;2022-10-31T11:10:24;20.10;;;14.65;;
43996;SDS011;34318;45.818;15.964;2022-10-31T11:12:59;22.65;;;15.25;;
43996;SDS011;34318;45.818;15.964;2022-10-31T11:15:28;18.33;;;14.68;;
43996;SDS011;34318;45.818;15.964;2022-10-31T11:17:56;17.63;;;14.45;;
43996;SDS011;34318;45.818;15.964;2022-10-31T11:22:59;17.00;;;14.35;;
43996;SDS011;34318;45.818;15.964;2022-10-31T11:25:27;17.35;;;13.13;;
43996;SDS011;34318;45.818;15.964;2022-10-31T11:28:01;17.55;;;13.82;;
43996;SDS011;34318;45.818;15.964;2022-10-31T11:30:28;18.33;;;14.32;;
43996;SDS011;34318;45.818;15.964;2022-10-31T11:32:56;17.58;;;13.07;;
43996;SDS011;34318;45.818;15.964;2022-10-31T11:35:24;15.55;;;13.95;;
43996;SDS011;34318;45.818;15.964;2022-10-31T11:37:53;20.85;;;14.35;;
43996;SDS011;34318;45.818;15.964;2022-10-31T11:40:22;14.52;;;12.88;;
43996;SDS011;34318;45.818;15.964;2022-10-31T11:42:50;13.98;;;12.45;;
43996;SDS011;34318;45.818;15.964;2022-10-31T11:47:48;17.23;;;13.30;;
43996;SDS011;34318;45.818;15.964;2022-10-31T11:52:54;15.70;;;12.43;;
43996;SDS011;34318;45.818;15.964;2022-10-31T11:57:58;20.08;;;13.93;;
43996;SDS011;34318;45.818;15.964;2022-10-31T12:05:44;18.13;;;14.45;;
43996;SDS011;34318;45.818;15.964;2022-10-31T12:08:12;16.27;;;13.73;;
43996;SDS011;34318;45.818;15.964;2022-10-31T12:10:44;17.95;;;14.60;;
43996;SDS011;34318;45.818;15.964;2022-10-31T12:13:21;22.85;;;14.02;;
43996;SDS011;34318;45.818;15.964;2022-10-31T12:15:53;20.23;;;13.95;;
43996;SDS011;34318;45.818;15.964;2022-10-31T12:44:37;18.30;;;15.00;;
43996;SDS011;34318;45.818;15.964;2022-10-31T12:57:47;19.85;;;16.25;;
43996;SDS011;34318;45.818;15.964;2022-10-31T13:00:18;18.85;;;17.00;;
43996;SDS011;34318;45.818;15.964;2022-10-31T13:05:41;20.33;;;17.30;;
43996;SDS011;34318;45.818;15.964;2022-10-31T13:11:12;19.52;;;15.73;;
43996;SDS011;34318;45.818;15.964;2022-10-31T13:13:43;20.50;;;15.45;;
43996;SDS011;34318;45.818;15.964;2022-10-31T13:18:50;18.17;;;15.48;;
43996;SDS011;34318;45.818;15.964;2022-10-31T13:21:23;21.92;;;15.63;;
43996;SDS011;34318;45.818;15.964;2022-10-31T13:23:51;19.90;;;15.00;;
43996;SDS011;34318;45.818;15.964;2022-10-31T13:28:50;21.10;;;14.55;;
43996;SDS011;34318;45.818;15.964;2022-10-31T13:31:19;19.17;;;15.85;;
43996;SDS011;34318;45.818;15.964;2022-10-31T13:33:54;18.83;;;16.90;;
43996;SDS011;34318;45.818;15.964;2022-10-31T13:36:43;24.15;;;17.33;;
43996;SDS011;34318;45.818;15.964;2022-10-31T13:39:21;25.65;;;17.67;;
43996;SDS011;34318;45.818;15.964;2022-10-31T13:47:20;18.45;;;15.65;;
43996;SDS011;34318;45.818;15.964;2022-10-31T13:49:47;21.75;;;17.00;;
43996;SDS011;34318;45.818;15.964;2022-10-31T13:52:16;18.85;;;15.43;;
43996;SDS011;34318;45.818;15.964;2022-10-31T13:54:45;24.73;;;15.20;;
43996;SDS011;34318;45.818;15.964;2022-10-31T13:59:45;17.52;;;15.65;;
43996;SDS011;34318;45.818;15.964;2022-10-31T14:02:14;22.50;;;14.88;;
43996;SDS011;34318;45.818;15.964;2022-10-31T14:04:46;18.92;;;15.32;;
43996;SDS011;34318;45.818;15.964;2022-10-31T14:07:19;21.30;;;16.02;;
43996;SDS011;34318;45.818;15.964;2022-10-31T14:14:52;19.13;;;16.50;;
43996;SDS011;34318;45.818;15.964;2022-10-31T14:17:25;18.27;;;16.40;;
43996;SDS011;34318;45.818;15.964;2022-10-31T14:22:46;21.27;;;16.10;;
43996;SDS011;34318;45.818;15.964;2022-10-31T14:28:00;16.35;;;14.63;;
43996;SDS011;34318;45.818;15.964;2022-10-31T14:30:29;21.05;;;15.23;;
43996;SDS011;34318;45.818;15.964;2022-10-31T14:33:01;17.92;;;15.40;;
43996;SDS011;34318;45.818;15.964;2022-10-31T14:35:37;15.40;;;13.73;;
43996;SDS011;34318;45.818;15.964;2022-10-31T14:38:19;15.88;;;13.60;;
43996;SDS011;34318;45.818;15.964;2022-10-31T14:40:52;21.38;;;13.75;;
43996;SDS011;34318;45.818;15.964;2022-10-31T14:43:30;17.88;;;14.05;;
43996;SDS011;34318;45.818;15.964;2022-10-31T14:51:39;17.70;;;14.15;;
43996;SDS011;34318;45.818;15.964;2022-10-31T14:54:09;17.98;;;14.50;;
43996;SDS011;34318;45.818;15.964;2022-10-31T14:56:40;22.73;;;18.17;;
43996;SDS011;34318;45.818;15.964;2022-10-31T14:59:11;18.02;;;15.93;;
43996;SDS011;34318;45.818;15.964;2022-10-31T15:01:40;22.75;;;15.80;;
43996;SDS011;34318;45.818;15.964;2022-10-31T15:04:24;17.83;;;16.00;;
43996;SDS011;34318;45.818;15.964;2022-10-31T15:07:14;20.15;;;17.98;;
43996;SDS011;34318;45.818;15.964;2022-10-31T15:09:39;22.25;;;16.23;;
43996;SDS011;34318;45.818;15.964;2022-10-31T15:12:22;20.05;;;15.80;;
43996;SDS011;34318;45.818;15.964;2022-10-31T15:14:50;18.48;;;16.50;;
43996;SDS011;34318;45.818;15.964;2022-10-31T15:17:18;19.15;;;16.63;;
43996;SDS011;34318;45.818;15.964;2022-10-31T15:19:46;16.88;;;15.02;;
43996;SDS011;34318;45.818;15.964;2022-10-31T15:22:14;21.48;;;16.50;;
43996;SDS011;34318;45.818;15.964;2022-10-31T15:24:42;20.92;;;17.15;;
43996;SDS011;34318;45.818;15.964;2022-10-31T15:27:14;22.15;;;19.52;;
43996;SDS011;34318;45.818;15.964;2022-10-31T15:29:49;22.85;;;20.35;;
43996;SDS011;34318;45.818;15.964;2022-10-31T15:32:26;24.58;;;20.50;;
43996;SDS011;34318;45.818;15.964;2022-10-31T15:34:54;22.77;;;19.27;;
43996;SDS011;34318;45.818;15.964;2022-10-31T15:37:24;22.80;;;18.65;;
43996;SDS011;34318;45.818;15.964;2022-10-31T15:39:52;21.40;;;18.05;;
43996;SDS011;34318;45.818;15.964;2022-10-31T15:42:27;21.20;;;18.63;;
43996;SDS011;34318;45.818;15.964;2022-10-31T15:47:37;26.88;;;19.80;;
43996;SDS011;34318;45.818;15.964;2022-10-31T15:50:06;28.45;;;18.08;;
43996;SDS011;34318;45.818;15.964;2022-10-31T15:52:45;27.73;;;18.80;;
43996;SDS011;34318;45.818;15.964;2022-10-31T15:57:44;25.95;;;18.55;;
43996;SDS011;34318;45.818;15.964;2022-10-31T16:02:49;25.42;;;18.73;;
43996;SDS011;34318;45.818;15.964;2022-10-31T16:05:17;22.98;;;20.75;;
43996;SDS011;34318;45.818;15.964;2022-10-31T16:07:48;22.65;;;20.48;;
43996;SDS011;34318;45.818;15.964;2022-10-31T16:10:23;25.33;;;20.33;;
43996;SDS011;34318;45.818;15.964;2022-10-31T16:12:51;23.98;;;20.35;;
43996;SDS011;34318;45.818;15.964;2022-10-31T16:15:19;23.35;;;20.75;;
43996;SDS011;34318;45.818;15.964;2022-10-31T16:17:48;21.13;;;19.00;;
43996;SDS011;34318;45.818;15.964;2022-10-31T16:20:26;23.13;;;19.92;;
43996;SDS011;34318;45.818;15.964;2022-10-31T16:22:54;28.33;;;19.13;;
43996;SDS011;34318;45.818;15.964;2022-10-31T16:25:26;22.38;;;19.75;;
43996;SDS011;34318;45.818;15.964;2022-10-31T16:27:55;20.75;;;18.65;;
43996;SDS011;34318;45.818;15.964;2022-10-31T16:30:35;20.92;;;18.45;;
43996;SDS011;34318;45.818;15.964;2022-10-31T16:33:04;21.95;;;17.90;;
43996;SDS011;34318;45.818;15.964;2022-10-31T16:35:36;21.92;;;19.42;;
43996;SDS011;34318;45.818;15.964;2022-10-31T16:38:04;26.33;;;19.10;;
43996;SDS011;34318;45.818;15.964;2022-10-31T16:40:31;22.35;;;19.13;;
43996;SDS011;34318;45.818;15.964;2022-10-31T16:42:59;18.38;;;16.50;;
43996;SDS011;34318;45.818;15.964;2022-10-31T16:45:28;22.80;;;18.90;;
43996;SDS011;34318;45.818;15.964;2022-10-31T16:48:05;20.48;;;18.00;;
43996;SDS011;34318;45.818;15.964;2022-10-31T16:50:33;21.10;;;18.98;;
43996;SDS011;34318;45.818;15.964;2022-10-31T16:53:00;26.27;;;20.77;;
43996;SDS011;34318;45.818;15.964;2022-10-31T16:58:15;28.20;;;21.33;;
43996;SDS011;34318;45.818;15.964;2022-10-31T17:00:42;26.67;;;21.08;;
43996;SDS011;34318;45.818;15.964;2022-10-31T17:03:10;21.80;;;19.35;;